createdAt,value
2019-05-09T00:00:00.000Z,13.0
2019-05-09T00:05:00.000Z,13.1
2019-05-09T00:10:00.000Z,13.1
2019-05-09T00:15:00.000Z,13.1
2019-05-09T00:20:00.000Z,13.1
2019-05-09T00:25:00.000Z,13.2
2019-05-09T00:30:00.000Z,13.1
2019-05-09T00:35:00.000Z,13.1
2019-05-09T00:40:00.000Z,13.1
2019-05-09T00:45:00.000Z,13.1
2019-05-09T00:51:00.000Z,13.1
2019-05-09T00:56:00.000Z,13.1
2019-05-09T01:01:00.000Z,13.1
2019-05-09T01:06:00.000Z,13.0
2019-05-09T01:11:00.000Z,13.0
2019-05-09T01:16:00.000Z,13.0
2019-05-09T01:21:00.000Z,13.0
2019-05-09T01:26:00.000Z,12.9
2019-05-09T01:31:00.000Z,12.9
2019-05-09T01:36:00.000Z,12.9
2019-05-09T01:41:00.000Z,12.8
2019-05-09T01:46:00.000Z,12.8
2019-05-09T01:51:00.000Z,12.8
2019-05-09T01:56:00.000Z,12.8
2019-05-09T02:01:00.000Z,12.8
2019-05-09T02:06:00.000Z,12.7
2019-05-09T02:11:00.000Z,12.7
2019-05-09T02:16:00.000Z,12.7
2019-05-09T02:21:00.000Z,12.7
2019-05-09T02:26:00.000Z,12.7
2019-05-09T02:31:00.000Z,12.6
2019-05-09T02:36:00.000Z,12.6
2019-05-09T02:47:00.000Z,12.6
2019-05-09T02:52:00.000Z,12.6
2019-05-09T02:57:00.000Z,12.6
2019-05-09T03:02:00.000Z,12.6
2019-05-09T03:07:00.000Z,12.7
2019-05-09T03:12:00.000Z,12.7
2019-05-09T03:17:00.000Z,12.7
2019-05-09T03:22:00.000Z,12.8
2019-05-09T03:27:00.000Z,12.8
2019-05-09T03:32:00.000Z,12.9
2019-05-09T03:37:00.000Z,12.9
2019-05-09T03:42:00.000Z,12.9
2019-05-09T03:47:00.000Z,12.9
2019-05-09T03:52:00.000Z,12.8
2019-05-09T03:57:00.000Z,12.8
2019-05-09T04:02:00.000Z,12.9
2019-05-09T04:07:00.000Z,12.9
2019-05-09T04:12:00.000Z,13.0
2019-05-09T04:17:00.000Z,13.0
2019-05-09T04:23:00.000Z,13.0
2019-05-09T04:28:00.000Z,13.0
2019-05-09T04:33:00.000Z,13.0
2019-05-09T04:38:00.000Z,13.0
2019-05-09T04:43:00.000Z,12.9
2019-05-09T04:48:00.000Z,12.9
2019-05-09T04:53:00.000Z,12.8
2019-05-09T04:58:00.000Z,12.7
2019-05-09T05:03:00.000Z,12.7
2019-05-09T05:08:00.000Z,12.8
2019-05-09T05:13:00.000Z,12.9
2019-05-09T05:18:00.000Z,12.9
2019-05-09T05:23:00.000Z,12.9
2019-05-09T05:28:00.000Z,12.9
2019-05-09T05:33:00.000Z,12.8
2019-05-09T05:38:00.000Z,12.7
2019-05-09T05:43:00.000Z,12.6
2019-05-09T05:48:00.000Z,12.5
2019-05-09T05:53:00.000Z,12.4
2019-05-09T05:58:00.000Z,12.3
2019-05-09T06:03:00.000Z,12.2
2019-05-09T06:08:00.000Z,12.1
2019-05-09T06:13:00.000Z,12.1
2019-05-09T06:19:00.000Z,12.0
2019-05-09T06:24:00.000Z,11.9
2019-05-09T06:29:00.000Z,11.8
2019-05-09T06:34:00.000Z,11.7
2019-05-09T06:39:00.000Z,11.7
2019-05-09T06:44:00.000Z,11.6
2019-05-09T06:49:00.000Z,11.6
2019-05-09T06:54:00.000Z,11.6
2019-05-09T06:59:00.000Z,11.6
2019-05-09T07:04:00.000Z,11.6
2019-05-09T07:09:00.000Z,11.6
2019-05-09T07:14:00.000Z,11.6
2019-05-09T07:19:00.000Z,11.7
2019-05-09T07:24:00.000Z,11.6
2019-05-09T07:29:00.000Z,11.6
2019-05-09T07:34:00.000Z,11.5
2019-05-09T07:39:00.000Z,11.4
2019-05-09T07:44:00.000Z,11.4
2019-05-09T07:49:00.000Z,11.4
2019-05-09T07:54:00.000Z,11.5
2019-05-09T07:59:00.000Z,11.4
2019-05-09T08:04:00.000Z,11.3
2019-05-09T08:09:00.000Z,11.3
2019-05-09T08:14:00.000Z,11.2
2019-05-09T08:20:00.000Z,11.2
2019-05-09T08:25:00.000Z,11.2
2019-05-09T08:30:00.000Z,11.2
2019-05-09T08:35:00.000Z,11.3
2019-05-09T08:40:00.000Z,11.3
2019-05-09T08:45:00.000Z,11.4
2019-05-09T08:50:00.000Z,11.4
2019-05-09T08:55:00.000Z,11.4
2019-05-09T09:00:00.000Z,11.4
2019-05-09T09:05:00.000Z,11.5
2019-05-09T09:10:00.000Z,11.6
2019-05-09T09:15:00.000Z,11.8
2019-05-09T09:21:00.000Z,11.8
2019-05-09T09:26:00.000Z,11.9
2019-05-09T09:31:00.000Z,11.9
2019-05-09T09:36:00.000Z,12.0
2019-05-09T09:41:00.000Z,12.0
2019-05-09T09:46:00.000Z,12.0
2019-05-09T09:51:00.000Z,12.1
2019-05-09T09:56:00.000Z,12.1
2019-05-09T10:01:00.000Z,12.0
2019-05-09T10:06:00.000Z,12.1
2019-05-09T10:11:00.000Z,12.1
2019-05-09T10:16:00.000Z,12.2
2019-05-09T10:21:00.000Z,12.3
2019-05-09T10:26:00.000Z,12.4
2019-05-09T10:31:00.000Z,12.5
2019-05-09T10:36:00.000Z,12.7
2019-05-09T10:41:00.000Z,12.8
2019-05-09T10:46:00.000Z,13.0
2019-05-09T10:52:00.000Z,13.2
2019-05-09T10:57:00.000Z,13.4
2019-05-09T11:02:00.000Z,13.4
2019-05-09T11:07:00.000Z,13.6
2019-05-09T11:12:00.000Z,13.8
2019-05-09T11:17:00.000Z,14.0
2019-05-09T11:22:00.000Z,14.2
2019-05-09T11:27:00.000Z,14.3
2019-05-09T11:32:00.000Z,14.3
2019-05-09T11:37:00.000Z,14.5
2019-05-09T11:42:00.000Z,14.6
2019-05-09T11:47:00.000Z,14.7
2019-05-09T11:52:00.000Z,14.7
2019-05-09T11:57:00.000Z,14.7
2019-05-09T12:02:00.000Z,14.8
2019-05-09T12:07:00.000Z,14.9
2019-05-09T12:12:00.000Z,14.9
2019-05-09T12:17:00.000Z,15.0
2019-05-09T12:23:00.000Z,15.0
2019-05-09T12:28:00.000Z,15.0
2019-05-09T12:33:00.000Z,14.9
2019-05-09T12:38:00.000Z,14.8
2019-05-09T12:43:00.000Z,15.0
2019-05-09T12:48:00.000Z,15.1
2019-05-09T12:53:00.000Z,15.3
2019-05-09T12:58:00.000Z,15.8
2019-05-09T13:03:00.000Z,16.2
2019-05-09T13:08:00.000Z,16.3
2019-05-09T13:13:00.000Z,16.4
2019-05-09T13:18:00.000Z,16.3
2019-05-09T13:23:00.000Z,16.2
2019-05-09T13:28:00.000Z,16.3
2019-05-09T13:33:00.000Z,16.4
2019-05-09T13:38:00.000Z,16.3
2019-05-09T13:43:00.000Z,16.3
2019-05-09T13:48:00.000Z,16.4
2019-05-09T13:54:00.000Z,16.4
2019-05-09T13:59:00.000Z,16.5
2019-05-09T14:04:00.000Z,16.7
2019-05-09T14:09:00.000Z,16.7
2019-05-09T14:14:00.000Z,16.6
2019-05-09T14:19:00.000Z,16.6
2019-05-09T14:24:00.000Z,16.5
2019-05-09T14:29:00.000Z,16.5
2019-05-09T14:34:00.000Z,16.5
2019-05-09T14:39:00.000Z,16.6
2019-05-09T14:45:00.000Z,16.7
2019-05-09T14:50:00.000Z,16.6
2019-05-09T14:55:00.000Z,16.5
2019-05-09T15:00:00.000Z,16.5
2019-05-09T15:05:00.000Z,16.7
2019-05-09T15:10:00.000Z,17.2
2019-05-09T15:15:00.000Z,17.6
2019-05-09T15:20:00.000Z,17.9
2019-05-09T15:25:00.000Z,18.1
2019-05-09T15:30:00.000Z,18.4
2019-05-09T15:35:00.000Z,18.5
2019-05-09T15:40:00.000Z,18.5
2019-05-09T15:45:00.000Z,18.6
2019-05-09T15:50:00.000Z,18.6
2019-05-09T15:55:00.000Z,18.4
2019-05-09T16:00:00.000Z,18.0
2019-05-09T16:05:00.000Z,17.7
2019-05-09T16:10:00.000Z,17.5
2019-05-09T16:15:00.000Z,17.3
2019-05-09T16:20:00.000Z,17.3
2019-05-09T16:25:00.000Z,17.1
2019-05-09T16:30:00.000Z,17.0
2019-05-09T16:35:00.000Z,16.9
2019-05-09T16:40:00.000Z,16.7
2019-05-09T16:45:00.000Z,16.6
2019-05-09T16:50:00.000Z,16.5
2019-05-09T16:56:00.000Z,16.4
2019-05-09T17:01:00.000Z,16.3
2019-05-09T17:06:00.000Z,16.2
2019-05-09T17:11:00.000Z,16.1
2019-05-09T17:16:00.000Z,16.1
2019-05-09T17:21:00.000Z,16.0
2019-05-09T17:26:00.000Z,15.9
2019-05-09T17:31:00.000Z,15.9
2019-05-09T17:36:00.000Z,15.7
2019-05-09T17:41:00.000Z,15.6
2019-05-09T17:46:00.000Z,15.5
2019-05-09T17:51:00.000Z,15.4
2019-05-09T17:56:00.000Z,15.3
2019-05-09T18:01:00.000Z,15.1
2019-05-09T18:06:00.000Z,15.0
2019-05-09T18:11:00.000Z,14.9
2019-05-09T18:16:00.000Z,14.8
2019-05-09T18:21:00.000Z,14.6
2019-05-09T18:26:00.000Z,14.5
2019-05-09T18:31:00.000Z,14.5
2019-05-09T18:36:00.000Z,14.4
2019-05-09T18:41:00.000Z,14.4
2019-05-09T18:46:00.000Z,14.4
2019-05-09T18:51:00.000Z,14.4
2019-05-09T18:57:00.000Z,14.3
2019-05-09T19:02:00.000Z,14.2
2019-05-09T19:07:00.000Z,14.1
2019-05-09T19:12:00.000Z,14.1
2019-05-09T19:17:00.000Z,14.0
2019-05-09T19:22:00.000Z,13.9
2019-05-09T19:27:00.000Z,13.8
2019-05-09T19:32:00.000Z,13.7
2019-05-09T19:37:00.000Z,13.6
2019-05-09T19:42:00.000Z,13.4
2019-05-09T19:47:00.000Z,13.3
2019-05-09T19:52:00.000Z,13.2
2019-05-09T19:57:00.000Z,13.2
2019-05-09T20:02:00.000Z,13.1
2019-05-09T20:07:00.000Z,13.1
2019-05-09T20:12:00.000Z,13.0
2019-05-09T20:17:00.000Z,13.0
2019-05-09T20:22:00.000Z,12.9
2019-05-09T20:27:00.000Z,12.9
2019-05-09T20:32:00.000Z,12.8
2019-05-09T20:37:00.000Z,12.8
2019-05-09T20:42:00.000Z,12.7
2019-05-09T20:47:00.000Z,12.7
2019-05-09T20:52:00.000Z,12.7
2019-05-09T20:58:00.000Z,12.6
2019-05-09T21:03:00.000Z,12.6
2019-05-09T21:08:00.000Z,12.6
2019-05-09T21:13:00.000Z,12.6
2019-05-09T21:18:00.000Z,12.6
2019-05-09T21:23:00.000Z,12.6
2019-05-09T21:28:00.000Z,12.6
2019-05-09T21:33:00.000Z,12.6
2019-05-09T21:38:00.000Z,12.6
2019-05-09T21:43:00.000Z,12.7
2019-05-09T21:48:00.000Z,12.7
2019-05-09T21:53:00.000Z,12.7
2019-05-09T21:58:00.000Z,12.7
2019-05-09T22:03:00.000Z,12.7
2019-05-09T22:08:00.000Z,12.7
2019-05-09T22:13:00.000Z,12.7
2019-05-09T22:18:00.000Z,12.7
2019-05-09T22:23:00.000Z,12.8
2019-05-09T22:28:00.000Z,12.8
2019-05-09T22:33:00.000Z,12.9
2019-05-09T22:38:00.000Z,13.0
2019-05-09T22:43:00.000Z,13.0
2019-05-09T22:49:00.000Z,13.1
2019-05-09T22:54:00.000Z,13.2
2019-05-09T22:59:00.000Z,13.2
2019-05-09T23:04:00.000Z,13.2
2019-05-09T23:09:00.000Z,13.2
2019-05-09T23:14:00.000Z,13.2
2019-05-09T23:19:00.000Z,13.2
2019-05-09T23:24:00.000Z,13.2
2019-05-09T23:29:00.000Z,13.2
2019-05-09T23:34:00.000Z,13.2
2019-05-09T23:39:00.000Z,13.2
2019-05-09T23:44:00.000Z,13.2
2019-05-09T23:49:00.000Z,13.1
2019-05-09T23:54:00.000Z,13.1
2019-05-09T23:59:00.000Z,13.0
